Main page
METAR-TAF:

METAR-TAF

Airports :

Washington Dulles International Airport

Washington, Virginia, United States

latitude: 38-56-05N, longitude: 077-26-51W, elevation: 95 m

Current weather observation

The report was made 34 minutes ago, at 08:52 UTC
Wind 4 kt from the Southeast
Temperature -7°C
Humidity 67%
Pressure 1028 hPa
Visibility: 16.1 km
Clear sky

METAR: KIAD 220852Z 13004KT 10SM CLR M07/M12 A3037 RMK AO2 SLP287 T10721122 56015

Time: 04:26 (09:26 UTC)

Forecast

The report was made 45 minutes ago, at 08:41 UTC
Forecast valid from 22 at 09 UTC to 23 at 12 UTC
Wind 3 kt from variable directions
Visibility: 10 km
Clear sky
From 22 at 1400 UTC
Wind 6 kt from the Southwest
Visibility: 10 km
Clear sky
From 23 at 0400 UTC
Wind kt from the North
Visibility: 10 km
Clear sky

TAF: KIAD 220841Z 2209/2312 VRB03KT P6SM SKC FM221400 23006KT P6SM SKC FM230400 00000KT P6SM SKC

Weather observations and forecasts of more than 4000 airports (METAR and TAF reports).

The available stations are represented by yellow and red dots on the map.

Hover mouse over dot to see the name of the station.

Then click to see weather observations and forecasts.

To change the map : click on the green buttons with a black cross to zoom in, on the green button with a dash to zoom out, or on the green arrows for adjacent maps.


METAR-TAF: